Terminal Aerodrome Forecast
Issued by NWS Tampa Bay Area, FL

Home | Current Version | Previous Version | Text Only | Print | Product List | Glossary Off
Versions: 1 2 3 4 5 6 7 8 9 10 11 12 13 14 15 16

000
FTUS42 KTBW 291133
TAFFMY
TAF
KFMY 291133Z 2912/3012 VRB03KT P6SM FEW025 SCT100 SCT250
     FM291400 17004KT P6SM SCT025 SCT250
     FM291600 21006KT P6SM VCTS SCT030CB SCT100 BKN250
     FM292000 25008KT P6SM SCT040 SCT130 BKN250
     FM292300 27005KT P6SM SCT040 SCT250
     FM300300 VRB03KT P6SM FEW030 SCT250=

USA.gov is the U.S. government's official web portal to all federal, state and local government web resources and services.